• Join FlightAware (Why Join?)
  • Login
  • US Flag 
 
01:18PM EST


 

Airport Tracker/Info


-or-


 

Live Flight TrackerFlight Track Log ✈ AAY824 ✈ 12-May-2014 ✈ KPIE - KDSM

Flight Track Log - Related Links

Times and Time Zones

All times are in EDT time to prevent confusion due to time zone crossing. See the AAY824 flight status page for this flight to view local times or setup timezone preferences in your user account.

Time Position Orientation Groundspeed Altitude Reporting Facility
EDT Latitude Longitude Course Direction KTS MPH feet Rate Location/Type
08:05AM 27.9000 -82.6833 180° South 159 183 400  Level Tampa TRACON
08:05AM 27.8833 -82.6833 180° South 163 188 1,600 960 Climbing Tampa TRACON
08:07AM 27.8167 -82.7167 204° Southwest 231 266 2,100 960 Climbing Tampa TRACON
08:08AM 27.8500 -82.7667 307° West 248 285 3,700 2,220 Climbing Tampa TRACON
08:10AM 27.9997 -82.7844 354° North 273 314 8,800 2,280 Climbing Jacksonville Center
08:11AM 28.0831 -82.7892 357° North 284 327 10,900 1,500 Climbing Jacksonville Center
08:12AM 28.1769 -82.7961 356° North 311 358 11,800 1,500 Climbing Jacksonville Center
08:13AM 28.2875 -82.8100 354° North 356 410 13,900 2,100 Climbing Jacksonville Center
08:14AM 28.4003 -82.8453 345° North 394 453 16,100 2,040 Climbing Jacksonville Center
08:15AM 28.5108 -82.8808 344° North 408 470 18,000 1,680 Climbing Jacksonville Center
08:16AM 28.6300 -82.9186 344° North 424 488 19,500 1,740 Climbing Jacksonville Center
08:17AM 28.7572 -82.9611 344° North 430 495 21,500 1,620 Climbing Jacksonville Center
08:18AM 28.8803 -83.0017 344° North 440 506 22,800 1,320 Climbing Jacksonville Center
08:19AM 29.0056 -83.0422 344° North 452 520 24,200 1,440 Climbing Jacksonville Center
08:20AM 29.1264 -83.0922 340° North 457 526 25,700 1,500 Climbing Jacksonville Center
08:21AM 29.2453 -83.1614 333° Northwest 464 534 27,200 1,620 Climbing Jacksonville Center
08:22AM 29.3558 -83.2308 331° Northwest 459 528 29,000 1,500 Climbing Jacksonville Center
08:23AM 29.4664 -83.3006 331° Northwest 454 522 30,200 1,260 Climbing Jacksonville Center
08:24AM 29.5747 -83.3678 332° Northwest 448 516 31,600 840 Climbing Jacksonville Center
08:25AM 29.6828 -83.4353 332° Northwest 448 516 31,900 120 Climbing Jacksonville Center
08:26AM 29.7892 -83.5006 332° Northwest 441 507 31,900  Level Jacksonville Center
08:27AM 29.8972 -83.5681 332° Northwest 441 507 31,900  Level Jacksonville Center
08:28AM 29.9931 -83.6289 331° Northwest 441 507 31,900  Level Jacksonville Center
08:29AM 30.1011 -83.6944 332° Northwest 441 507 31,900  Level Jacksonville Center
08:30AM 30.2092 -83.7628 331° Northwest 441 507 31,900  Level Jacksonville Center
08:31AM 30.3153 -83.8286 332° Northwest 436 502 31,900  Level Jacksonville Center
08:32AM 30.4233 -83.8922 333° Northwest 436 502 31,900  Level Jacksonville Center
08:33AM 30.5314 -83.9608 331° Northwest 436 502 31,900  Level Jacksonville Center
08:34AM 30.6331 -84.0297 330° Northwest 436 502 32,000  Climbing Jacksonville Center
08:35AM 30.7411 -84.0939 333° Northwest 436 502 32,000  Level Jacksonville Center
08:36AM 30.8489 -84.1631 331° Northwest 436 502 32,000  Level Jacksonville Center
08:37AM 30.9569 -84.2322 331° Northwest 436 502 32,000  Level Jacksonville Center
08:38AM 31.1306 -84.3419 332° Northwest 440 506 32,000  Level Atlanta Center
08:39AM 31.2389 -84.4081 332° Northwest 440 506 32,000  Level Atlanta Center
08:40AM 31.3347 -84.4692 331° Northwest 440 506 32,000  Level Atlanta Center
08:41AM 31.4431 -84.5378 332° Northwest 440 506 32,000  Level Atlanta Center
08:42AM 31.5533 -84.6067 332° Northwest 440 506 32,000  Level Atlanta Center
08:43AM 31.6614 -84.6756 332° Northwest 440 506 32,000  Level Atlanta Center
08:44AM 31.7697 -84.7472 331° Northwest 440 506 32,000  Level Atlanta Center
08:45AM 31.8800 -84.8117 334° Northwest 440 506 32,000  Level Atlanta Center
08:46AM 31.9986 -84.8544 343° North 435 501 32,000  Level Atlanta Center
08:47AM 32.1172 -84.8922 345° North 440 506 32,000  Level Atlanta Center
08:48AM 32.2358 -84.9328 344° North 440 506 32,000  Level Atlanta Center
08:49AM 32.3567 -84.9708 345° North 435 501 32,000  Level Atlanta Center
08:50AM 32.4714 -85.0089 344° North 440 506 32,000  Level Atlanta Center
08:51AM 32.5919 -85.0497 344° North 439 505 32,000  Level Atlanta Center
08:52AM 32.7064 -85.0881 344° North 434 499 32,000  Level Atlanta Center
08:53AM 32.8292 -85.1289 344° North 434 499 32,000  Level Atlanta Center
08:54AM 32.9458 -85.1700 344° North 440 506 32,000  Level Atlanta Center
08:55AM 33.0769 -85.2189 343° North 440 506 32,000  Level Atlanta Center
08:56AM 33.1933 -85.2725 339° North 440 506 32,000  Level Atlanta Center
08:57AM 33.3075 -85.3239 339° North 440 506 32,000  Level Atlanta Center
08:58AM 33.4217 -85.3753 339° North 445 512 32,000  Level Atlanta Center
08:59AM 33.5381 -85.4319 338° Northwest 445 512 32,000  Level Atlanta Center
09:00AM 33.6542 -85.4839 340° North 445 512 32,000  Level Atlanta Center
09:01AM 33.7664 -85.5356 339° North 445 512 32,000  Level Atlanta Center
09:02AM 33.8722 -85.5875 338° Northwest 440 506 32,000  Level Atlanta Center
09:03AM 33.9842 -85.6447 337° Northwest 445 512 32,000  Level Atlanta Center
09:04AM 34.1025 -85.6994 339° North 445 512 32,000  Level Atlanta Center
09:05AM 34.2164 -85.7494 340° North 445 512 32,000  Level Atlanta Center
09:06AM 34.3325 -85.8047 339° North 445 512 32,000  Level Atlanta Center
09:07AM 34.4508 -85.8600 339° North 450 518 32,000  Level Atlanta Center
09:08AM 34.5647 -85.9156 338° Northwest 445 512 32,000  Level Atlanta Center
09:09AM 34.6303 -85.9478 338° Northwest 450 518 32,000  Level Memphis Center
09:10AM 34.7458 -86.0033 338° Northwest 450 518 32,000  Level Memphis Center
09:11AM 34.8706 -86.0647 338° Northwest 451 519 32,000  Level Memphis Center
09:12AM 34.9872 -86.1217 338° Northwest 451 519 32,000  Level Memphis Center
09:13AM 35.1278 -86.1922 338° Northwest 451 519 32,000  Level Memphis Center
09:14AM 35.2442 -86.2464 339° North 450 518 32,000  Level Memphis Center
09:15AM 35.3622 -86.3053 338° Northwest 450 518 32,000  Level Memphis Center
09:16AM 35.4786 -86.3639 338° Northwest 450 518 32,000  Level Memphis Center
09:17AM 35.5967 -86.4219 338° Northwest 451 519 32,000  Level Memphis Center
09:18AM 35.7147 -86.4789 339° North 451 519 32,000  Level Memphis Center
09:19AM 35.8519 -86.5464 338° Northwest 451 519 32,000  Level Memphis Center
09:20AM 35.9708 -86.6047 338° Northwest 452 520 32,000  Level Memphis Center
09:21AM 36.0889 -86.6622 339° North 452 520 32,000  Level Memphis Center
09:22AM 36.1878 -86.7533 323° Northwest 447 514 32,000  Level Memphis Center
09:23AM 36.2706 -86.8628 313° West 442 509 32,000  Level Memphis Center
09:24AM 36.3583 -86.9767 314° West 451 519 32,000  Level Memphis Center
09:25AM 36.4528 -87.1000 314° West 446 513 32,000  Level Memphis Center
09:26AM 36.5381 -87.2142 313° West 446 513 32,000  Level Memphis Center
09:27AM 36.6231 -87.3275 313° West 446 513 32,000  Level Memphis Center
09:28AM 36.7078 -87.4411 313° West 445 512 32,000  Level Memphis Center
09:29AM 36.7925 -87.5547 313° West 445 512 32,000  Level Memphis Center
09:30AM 36.8903 -87.6883 312° West 445 512 32,000  Level Memphis Center
09:32AM 36.9750 -87.8014 313° West 445 512 32,000  Level Memphis Center
09:33AM 37.0589 -87.9158 313° West 442 509 32,000  Level Memphis Center
09:34AM 37.1422 -88.0297 313° West 442 509 32,000  Level Memphis Center
09:35AM 37.2264 -88.1456 312° West 442 509 32,000  Level Memphis Center
09:36AM 37.3081 -88.2583 312° West 441 507 32,000  Level Memphis Center
09:37AM 37.3883 -88.3711 312° West 437 503 32,000  Level Memphis Center
09:38AM 37.4861 -88.5078 312° West 437 503 32,000  Level Memphis Center
09:39AM 37.5683 -88.6208 313° West 437 503 32,000  Level Memphis Center
09:40AM 37.6497 -88.7331 313° West 437 503 32,000  Level Memphis Center
09:41AM 37.7306 -88.8489 311° West 437 503 32,000  Level Memphis Center
09:42AM 37.8125 -88.9625 312° West 437 503 32,000  Level Memphis Center
09:43AM 37.8933 -89.0772 312° West 438 504 32,000  Level Memphis Center
09:44AM 37.9897 -89.2139 312° West 437 503 32,000  Level Memphis Center
09:45AM 38.1033 -89.3767 312° West 437 503 32,000  Level Kansas City Center
09:46AM 38.1831 -89.4914 311° West 436 502 32,000  Level Kansas City Center
09:47AM 38.2692 -89.6144 312° West 434 499 32,000  Level Kansas City Center
09:48AM 38.3417 -89.7208 311° West 433 498 32,000  Level Kansas City Center
09:49AM 38.4214 -89.8369 311° West 433 498 32,000  Level Kansas City Center
09:51AM 38.5019 -89.9511 312° West 434 499 32,000  Level Kansas City Center
09:52AM 38.5875 -90.0750 311° West 439 505 32,000  Level Kansas City Center
09:53AM 38.6728 -90.2025 311° West 433 498 32,000  Level Kansas City Center
09:54AM 38.7494 -90.3156 311° West 421 484 32,000  Level Kansas City Center
09:55AM 38.8308 -90.4411 310° West 434 499 32,000  Level Kansas City Center
09:56AM 38.9131 -90.5531 313° West 433 498 32,000  Level Kansas City Center
09:57AM 39.0067 -90.6586 319° Northwest 432 497 32,000  Level Kansas City Center
09:58AM 39.0944 -90.7583 319° Northwest 425 489 32,000  Level Kansas City Center
09:59AM 39.1847 -90.8603 319° Northwest 427 491 32,000  Level Kansas City Center
10:00AM 39.2861 -90.9750 319° Northwest 428 493 32,000  Level Kansas City Center
10:01AM 39.3856 -91.0889 319° Northwest 434 499 32,000  Level Kansas City Center
10:02AM 39.4756 -91.1933 318° Northwest 435 501 32,000  Level Kansas City Center
10:03AM 39.5619 -91.3003 316° Northwest 436 502 32,000  Level Kansas City Center
10:04AM 39.6183 -91.4361 298° West 432 497 32,000  Level Kansas City Center
10:05AM 39.6744 -91.5736 298° West 433 498 32,000  Level Kansas City Center
10:06AM 39.7306 -91.7128 298° West 434 499 32,000  Level Kansas City Center
10:07AM 39.7969 -91.8797 297° West 434 499 32,000  Level Kansas City Center
10:08AM 39.8572 -92.0164 300° West 435 501 32,000  Level Kansas City Center
10:09AM 39.9219 -92.1469 303° West 435 501 32,000  Level Kansas City Center
10:10AM 39.9872 -92.2758 303° West 434 499 32,000  Level Kansas City Center
10:11AM 40.0511 -92.4056 303° West 429 494 32,000  Level Kansas City Center
10:12AM 40.1281 -92.5303 309° West 441 507 32,000 -480 Level Kansas City Center
10:13AM 40.2475 -92.6431 324° Northwest 439 505 31,000 -1,680 Descending Kansas City Center
10:14AM 40.3503 -92.7300 327° Northwest 439 505 28,600 -2,520 Descending Kansas City Center
10:15AM 40.4553 -92.8092 330° Northwest 440 506 25,800 -2,460 Descending Kansas City Center
10:16AM 40.5578 -92.8903 329° Northwest 435 501 23,500 -2,340 Descending Kansas City Center
10:17AM 40.6578 -92.9694 329° Northwest 419 482 21,000 -2,580 Descending Kansas City Center
10:19AM 40.7925 -93.0739 330° Northwest 407 468 17,600 -2,520 Descending Chicago Center
10:20AM 40.8856 -93.1461 330° Northwest 396 456 15,400 -2,280 Descending Chicago Center
10:21AM 40.9772 -93.2139 331° Northwest 385 443 13,000 -2,340 Descending Chicago Center
10:22AM 41.0672 -93.2722 334° Northwest 370 426 10,600 -1,620 Descending Chicago Center
10:23AM 41.1525 -93.3389 330° Northwest 295 339 9,700 -960 Descending Minneapolis Center
10:23AM 41.1644 -93.3667 300° West 293 337 9,400 -1,020 Descending Minneapolis Center
10:24AM 41.2117 -93.4008 331° Northwest 261 300 8,700 -1,020 Descending Minneapolis Center
10:24AM 41.2233 -93.4281 300° West 273 314 8,400 -1,020 Descending Minneapolis Center
10:25AM 41.2711 -93.4628 331° Northwest 269 310 7,700 -1,020 Descending Minneapolis Center
10:25AM 41.2892 -93.4950 307° West 274 315 7,400 -1,020 Descending Minneapolis Center
10:26AM 41.3303 -93.5194 336° Northwest 286 329 6,800 -1,080 Descending Minneapolis Center
10:26AM 41.3522 -93.5561 309° West 281 323 6,300 -1,320 Descending Minneapolis Center
10:27AM 41.3914 -93.5758 339° North 265 305 5,500 -1,620 Descending Minneapolis Center
10:27AM 41.4136 -93.6061 314° West 264 304 4,700 -1,620 Descending Minneapolis Center
10:28AM 41.4506 -93.6300 334° Northwest 253 291 3,900 -1,380 Descending Minneapolis Center
10:28AM 41.4681 -93.6633 305° West 253 291 3,300 -1,020 Descending Minneapolis Center
10:29AM 41.4972 -93.6814 335° Northwest 208 239 2,900 -900 Descending Minneapolis Center
10:29AM 41.5133 -93.7158 302° West 202 232 2,400 -840 Descending Minneapolis Center
10:30AM 41.5353 -93.7278 338° Northwest 170 196 2,100 -540 Descending Minneapolis Center
10:30AM 41.5544 -93.7408 333° Northwest 179 206 1,900 -300 Descending Minneapolis Center
10:31AM 41.5747 -93.7103 48° Northeast 158 182 1,800 -540 Descending Minneapolis Center
10:31AM 41.5608 -93.6961 143° Southeast 150 173 1,400 -600 Descending Minneapolis Center
10:32AM 41.5411 -93.6681 133° Southeast 128 147 900 -540 Descending Minneapolis Center